sensor_id;sensor_type;location;lat;lon;timestamp;P1;durP1;ratioP1;P2;durP2;ratioP2
3359;SDS011;1693;49.602;11.046;2024-02-04T00:00:59;2.07;;;1.40;;
3359;SDS011;1693;49.602;11.046;2024-02-04T00:03:27;1.63;;;0.80;;
3359;SDS011;1693;49.602;11.046;2024-02-04T00:05:54;2.63;;;1.83;;
3359;SDS011;1693;49.602;11.046;2024-02-04T00:08:21;1.37;;;1.20;;
3359;SDS011;1693;49.602;11.046;2024-02-04T00:10:47;1.70;;;1.10;;
3359;SDS011;1693;49.602;11.046;2024-02-04T00:13:16;1.40;;;1.30;;
3359;SDS011;1693;49.602;11.046;2024-02-04T00:15:43;1.30;;;1.17;;
3359;SDS011;1693;49.602;11.046;2024-02-04T00:18:10;1.30;;;1.10;;
3359;SDS011;1693;49.602;11.046;2024-02-04T00:20:37;1.20;;;0.97;;
3359;SDS011;1693;49.602;11.046;2024-02-04T00:23:05;1.50;;;1.10;;
3359;SDS011;1693;49.602;11.046;2024-02-04T00:25:32;1.27;;;1.03;;
3359;SDS011;1693;49.602;11.046;2024-02-04T00:27:59;1.57;;;1.43;;
3359;SDS011;1693;49.602;11.046;2024-02-04T00:30:27;1.20;;;1.00;;
3359;SDS011;1693;49.602;11.046;2024-02-04T00:32:54;1.70;;;1.30;;
3359;SDS011;1693;49.602;11.046;2024-02-04T00:35:27;1.40;;;1.10;;
3359;SDS011;1693;49.602;11.046;2024-02-04T00:37:54;1.40;;;0.87;;
3359;SDS011;1693;49.602;11.046;2024-02-04T00:40:21;1.60;;;1.40;;
3359;SDS011;1693;49.602;11.046;2024-02-04T00:42:48;1.40;;;1.20;;
3359;SDS011;1693;49.602;11.046;2024-02-04T00:45:15;1.60;;;1.50;;
3359;SDS011;1693;49.602;11.046;2024-02-04T00:47:44;1.20;;;1.10;;
3359;SDS011;1693;49.602;11.046;2024-02-04T00:50:11;1.93;;;1.33;;
3359;SDS011;1693;49.602;11.046;2024-02-04T00:52:38;1.47;;;1.27;;
3359;SDS011;1693;49.602;11.046;2024-02-04T00:55:06;1.57;;;1.47;;
3359;SDS011;1693;49.602;11.046;2024-02-04T00:57:34;1.50;;;1.10;;
3359;SDS011;1693;49.602;11.046;2024-02-04T01:00:01;1.57;;;1.17;;
3359;SDS011;1693;49.602;11.046;2024-02-04T01:02:29;1.23;;;0.83;;
3359;SDS011;1693;49.602;11.046;2024-02-04T01:04:57;1.40;;;1.30;;
3359;SDS011;1693;49.602;11.046;2024-02-04T01:07:24;1.50;;;1.00;;
3359;SDS011;1693;49.602;11.046;2024-02-04T01:09:51;1.10;;;1.00;;
3359;SDS011;1693;49.602;11.046;2024-02-04T01:12:18;1.73;;;1.00;;
3359;SDS011;1693;49.602;11.046;2024-02-04T01:14:45;1.23;;;0.87;;
3359;SDS011;1693;49.602;11.046;2024-02-04T01:17:12;2.07;;;1.20;;
3359;SDS011;1693;49.602;11.046;2024-02-04T01:19:39;1.20;;;0.90;;
3359;SDS011;1693;49.602;11.046;2024-02-04T01:22:07;2.00;;;1.43;;
3359;SDS011;1693;49.602;11.046;2024-02-04T01:24:34;1.53;;;1.33;;
3359;SDS011;1693;49.602;11.046;2024-02-04T01:27:02;1.30;;;1.00;;
3359;SDS011;1693;49.602;11.046;2024-02-04T01:29:29;1.20;;;0.90;;
3359;SDS011;1693;49.602;11.046;2024-02-04T01:31:56;1.70;;;1.60;;
3359;SDS011;1693;49.602;11.046;2024-02-04T01:34:23;1.23;;;1.00;;
3359;SDS011;1693;49.602;11.046;2024-02-04T01:36:50;1.20;;;1.00;;
3359;SDS011;1693;49.602;11.046;2024-02-04T01:39:18;1.30;;;1.00;;
3359;SDS011;1693;49.602;11.046;2024-02-04T01:41:45;1.10;;;0.87;;
3359;SDS011;1693;49.602;11.046;2024-02-04T01:44:12;1.00;;;0.70;;
3359;SDS011;1693;49.602;11.046;2024-02-04T01:46:40;1.00;;;0.70;;
3359;SDS011;1693;49.602;11.046;2024-02-04T01:49:08;1.50;;;1.00;;
3359;SDS011;1693;49.602;11.046;2024-02-04T01:51:35;1.67;;;1.07;;
3359;SDS011;1693;49.602;11.046;2024-02-04T01:54:03;0.97;;;0.70;;
3359;SDS011;1693;49.602;11.046;2024-02-04T01:56:32;1.53;;;1.10;;
3359;SDS011;1693;49.602;11.046;2024-02-04T01:59:00;0.90;;;0.70;;
3359;SDS011;1693;49.602;11.046;2024-02-04T02:01:27;1.00;;;0.70;;
3359;SDS011;1693;49.602;11.046;2024-02-04T02:03:55;1.20;;;0.83;;
3359;SDS011;1693;49.602;11.046;2024-02-04T02:06:22;1.13;;;1.00;;
3359;SDS011;1693;49.602;11.046;2024-02-04T02:08:50;1.23;;;0.83;;
3359;SDS011;1693;49.602;11.046;2024-02-04T02:11:21;1.03;;;0.83;;
3359;SDS011;1693;49.602;11.046;2024-02-04T02:13:55;1.00;;;0.70;;
3359;SDS011;1693;49.602;11.046;2024-02-04T02:16:27;1.27;;;0.83;;
3359;SDS011;1693;49.602;11.046;2024-02-04T02:19:00;1.17;;;0.80;;
3359;SDS011;1693;49.602;11.046;2024-02-04T02:21:37;1.20;;;0.93;;
3359;SDS011;1693;49.602;11.046;2024-02-04T02:24:12;1.10;;;0.90;;
3359;SDS011;1693;49.602;11.046;2024-02-04T02:26:46;1.97;;;1.23;;
3359;SDS011;1693;49.602;11.046;2024-02-04T02:29:14;1.43;;;0.90;;
3359;SDS011;1693;49.602;11.046;2024-02-04T02:31:41;1.50;;;1.00;;
3359;SDS011;1693;49.602;11.046;2024-02-04T02:34:09;1.50;;;0.87;;
3359;SDS011;1693;49.602;11.046;2024-02-04T02:36:37;1.30;;;1.20;;
3359;SDS011;1693;49.602;11.046;2024-02-04T02:39:13;1.37;;;1.00;;
3359;SDS011;1693;49.602;11.046;2024-02-04T02:41:43;1.57;;;1.30;;
3359;SDS011;1693;49.602;11.046;2024-02-04T02:44:15;2.00;;;0.87;;
3359;SDS011;1693;49.602;11.046;2024-02-04T02:46:42;1.23;;;1.00;;
3359;SDS011;1693;49.602;11.046;2024-02-04T02:49:10;1.70;;;1.00;;
3359;SDS011;1693;49.602;11.046;2024-02-04T02:51:37;1.80;;;1.33;;
3359;SDS011;1693;49.602;11.046;2024-02-04T02:54:04;2.00;;;1.30;;
3359;SDS011;1693;49.602;11.046;2024-02-04T02:56:32;1.53;;;1.00;;
3359;SDS011;1693;49.602;11.046;2024-02-04T02:58:59;1.40;;;1.13;;
3359;SDS011;1693;49.602;11.046;2024-02-04T03:01:27;2.43;;;1.90;;
3359;SDS011;1693;49.602;11.046;2024-02-04T03:03:54;1.20;;;1.10;;
3359;SDS011;1693;49.602;11.046;2024-02-04T03:06:21;1.53;;;1.20;;
3359;SDS011;1693;49.602;11.046;2024-02-04T03:08:48;3.83;;;1.73;;
3359;SDS011;1693;49.602;11.046;2024-02-04T03:11:16;1.50;;;1.40;;
3359;SDS011;1693;49.602;11.046;2024-02-04T03:13:43;1.57;;;1.30;;
3359;SDS011;1693;49.602;11.046;2024-02-04T03:16:10;1.53;;;1.43;;
3359;SDS011;1693;49.602;11.046;2024-02-04T03:18:40;2.20;;;1.43;;
3359;SDS011;1693;49.602;11.046;2024-02-04T03:21:11;1.57;;;1.17;;
3359;SDS011;1693;49.602;11.046;2024-02-04T03:23:39;2.00;;;1.57;;
3359;SDS011;1693;49.602;11.046;2024-02-04T03:26:07;1.93;;;1.70;;
3359;SDS011;1693;49.602;11.046;2024-02-04T03:28:34;2.77;;;1.90;;
3359;SDS011;1693;49.602;11.046;2024-02-04T03:31:01;2.40;;;2.20;;
3359;SDS011;1693;49.602;11.046;2024-02-04T03:33:28;2.30;;;1.30;;
3359;SDS011;1693;49.602;11.046;2024-02-04T03:35:56;2.53;;;2.20;;
3359;SDS011;1693;49.602;11.046;2024-02-04T03:38:23;2.40;;;1.90;;
3359;SDS011;1693;49.602;11.046;2024-02-04T03:40:51;1.90;;;1.40;;
3359;SDS011;1693;49.602;11.046;2024-02-04T03:43:18;1.40;;;1.30;;
3359;SDS011;1693;49.602;11.046;2024-02-04T03:45:46;2.23;;;1.90;;
3359;SDS011;1693;49.602;11.046;2024-02-04T03:48:13;1.40;;;1.20;;
3359;SDS011;1693;49.602;11.046;2024-02-04T03:50:40;2.10;;;1.90;;
3359;SDS011;1693;49.602;11.046;2024-02-04T03:53:09;2.13;;;1.87;;
3359;SDS011;1693;49.602;11.046;2024-02-04T03:55:36;1.53;;;1.43;;
3359;SDS011;1693;49.602;11.046;2024-02-04T03:58:03;2.30;;;1.80;;
3359;SDS011;1693;49.602;11.046;2024-02-04T04:00:30;2.13;;;1.67;;
3359;SDS011;1693;49.602;11.046;2024-02-04T04:02:57;4.70;;;2.63;;
3359;SDS011;1693;49.602;11.046;2024-02-04T04:05:24;2.37;;;2.00;;
3359;SDS011;1693;49.602;11.046;2024-02-04T04:07:51;2.17;;;1.67;;
3359;SDS011;1693;49.602;11.046;2024-02-04T04:10:19;2.73;;;1.77;;
3359;SDS011;1693;49.602;11.046;2024-02-04T04:12:46;1.60;;;1.30;;
3359;SDS011;1693;49.602;11.046;2024-02-04T04:15:13;2.43;;;1.67;;
3359;SDS011;1693;49.602;11.046;2024-02-04T04:17:40;2.13;;;1.37;;
3359;SDS011;1693;49.602;11.046;2024-02-04T04:20:07;2.23;;;1.83;;
3359;SDS011;1693;49.602;11.046;2024-02-04T04:22:35;3.10;;;2.10;;
3359;SDS011;1693;49.602;11.046;2024-02-04T04:25:05;3.50;;;2.27;;
3359;SDS011;1693;49.602;11.046;2024-02-04T04:27:34;2.27;;;2.07;;
3359;SDS011;1693;49.602;11.046;2024-02-04T04:30:01;2.90;;;1.83;;
3359;SDS011;1693;49.602;11.046;2024-02-04T04:32:28;2.07;;;1.90;;
3359;SDS011;1693;49.602;11.046;2024-02-04T04:34:56;2.50;;;2.03;;
3359;SDS011;1693;49.602;11.046;2024-02-04T04:37:23;3.23;;;1.97;;
3359;SDS011;1693;49.602;11.046;2024-02-04T04:39:50;2.10;;;1.90;;
3359;SDS011;1693;49.602;11.046;2024-02-04T04:42:17;1.73;;;1.37;;
3359;SDS011;1693;49.602;11.046;2024-02-04T04:44:45;2.70;;;1.83;;
3359;SDS011;1693;49.602;11.046;2024-02-04T04:47:12;1.80;;;1.60;;
3359;SDS011;1693;49.602;11.046;2024-02-04T04:49:41;1.77;;;1.57;;
3359;SDS011;1693;49.602;11.046;2024-02-04T04:52:09;2.07;;;1.70;;
3359;SDS011;1693;49.602;11.046;2024-02-04T04:54:35;2.70;;;1.37;;
3359;SDS011;1693;49.602;11.046;2024-02-04T04:57:03;1.90;;;1.47;;
3359;SDS011;1693;49.602;11.046;2024-02-04T04:59:30;1.57;;;1.40;;
3359;SDS011;1693;49.602;11.046;2024-02-04T05:02:00;2.20;;;1.90;;
3359;SDS011;1693;49.602;11.046;2024-02-04T05:04:26;3.57;;;1.90;;
3359;SDS011;1693;49.602;11.046;2024-02-04T05:06:54;1.50;;;1.30;;
3359;SDS011;1693;49.602;11.046;2024-02-04T05:09:22;1.57;;;1.00;;
3359;SDS011;1693;49.602;11.046;2024-02-04T05:11:49;1.83;;;1.40;;
3359;SDS011;1693;49.602;11.046;2024-02-04T05:14:16;1.83;;;1.73;;
3359;SDS011;1693;49.602;11.046;2024-02-04T05:16:43;1.63;;;1.30;;
3359;SDS011;1693;49.602;11.046;2024-02-04T05:19:12;1.83;;;1.07;;
3359;SDS011;1693;49.602;11.046;2024-02-04T05:21:39;1.93;;;0.90;;
3359;SDS011;1693;49.602;11.046;2024-02-04T05:24:06;1.87;;;1.30;;
3359;SDS011;1693;49.602;11.046;2024-02-04T05:26:33;1.50;;;1.10;;
3359;SDS011;1693;49.602;11.046;2024-02-04T05:29:00;1.50;;;1.20;;
3359;SDS011;1693;49.602;11.046;2024-02-04T05:31:27;1.43;;;1.10;;
3359;SDS011;1693;49.602;11.046;2024-02-04T05:33:55;1.40;;;1.10;;
3359;SDS011;1693;49.602;11.046;2024-02-04T05:36:24;1.30;;;1.00;;
3359;SDS011;1693;49.602;11.046;2024-02-04T05:38:51;1.20;;;0.97;;
3359;SDS011;1693;49.602;11.046;2024-02-04T05:41:18;1.30;;;0.97;;
3359;SDS011;1693;49.602;11.046;2024-02-04T05:43:45;1.43;;;1.10;;
3359;SDS011;1693;49.602;11.046;2024-02-04T05:46:13;0.93;;;0.70;;
3359;SDS011;1693;49.602;11.046;2024-02-04T05:48:40;1.70;;;1.20;;
3359;SDS011;1693;49.602;11.046;2024-02-04T05:51:09;1.10;;;0.87;;
3359;SDS011;1693;49.602;11.046;2024-02-04T05:53:38;1.20;;;0.73;;
3359;SDS011;1693;49.602;11.046;2024-02-04T05:56:05;1.10;;;0.80;;
3359;SDS011;1693;49.602;11.046;2024-02-04T05:58:34;1.20;;;0.70;;
3359;SDS011;1693;49.602;11.046;2024-02-04T06:01:01;1.27;;;0.80;;
3359;SDS011;1693;49.602;11.046;2024-02-04T06:03:29;1.30;;;0.67;;
3359;SDS011;1693;49.602;11.046;2024-02-04T06:05:56;1.07;;;0.70;;
3359;SDS011;1693;49.602;11.046;2024-02-04T06:08:23;1.10;;;0.70;;
3359;SDS011;1693;49.602;11.046;2024-02-04T06:10:51;1.00;;;0.70;;
3359;SDS011;1693;49.602;11.046;2024-02-04T06:13:18;0.90;;;0.60;;
3359;SDS011;1693;49.602;11.046;2024-02-04T06:15:45;10.10;;;0.93;;
3359;SDS011;1693;49.602;11.046;2024-02-04T06:18:12;1.00;;;0.70;;
3359;SDS011;1693;49.602;11.046;2024-02-04T06:20:39;1.23;;;0.70;;
3359;SDS011;1693;49.602;11.046;2024-02-04T06:23:06;2.73;;;0.70;;
3359;SDS011;1693;49.602;11.046;2024-02-04T06:25:33;0.90;;;0.60;;
3359;SDS011;1693;49.602;11.046;2024-02-04T06:30:46;1.37;;;0.93;;
3359;SDS011;1693;49.602;11.046;2024-02-04T06:33:16;1.13;;;0.70;;
3359;SDS011;1693;49.602;11.046;2024-02-04T06:35:43;1.20;;;0.70;;
3359;SDS011;1693;49.602;11.046;2024-02-04T06:38:10;1.10;;;0.60;;
3359;SDS011;1693;49.602;11.046;2024-02-04T06:40:37;1.20;;;0.67;;
3359;SDS011;1693;49.602;11.046;2024-02-04T06:43:04;1.10;;;0.70;;
3359;SDS011;1693;49.602;11.046;2024-02-04T06:45:33;1.10;;;0.77;;
3359;SDS011;1693;49.602;11.046;2024-02-04T06:48:00;2.13;;;0.90;;
3359;SDS011;1693;49.602;11.046;2024-02-04T06:50:28;1.00;;;0.73;;
3359;SDS011;1693;49.602;11.046;2024-02-04T06:52:54;1.47;;;0.70;;
3359;SDS011;1693;49.602;11.046;2024-02-04T06:55:21;1.00;;;0.80;;
3359;SDS011;1693;49.602;11.046;2024-02-04T06:57:48;1.47;;;0.80;;
3359;SDS011;1693;49.602;11.046;2024-02-04T07:00:16;1.00;;;0.70;;
3359;SDS011;1693;49.602;11.046;2024-02-04T07:02:45;1.10;;;0.80;;
3359;SDS011;1693;49.602;11.046;2024-02-04T07:05:12;1.53;;;0.80;;
3359;SDS011;1693;49.602;11.046;2024-02-04T07:07:57;1.90;;;1.03;;
3359;SDS011;1693;49.602;11.046;2024-02-04T07:10:24;1.10;;;0.63;;
3359;SDS011;1693;49.602;11.046;2024-02-04T07:12:51;1.37;;;0.83;;
3359;SDS011;1693;49.602;11.046;2024-02-04T07:18:10;1.20;;;0.60;;
3359;SDS011;1693;49.602;11.046;2024-02-04T07:20:37;1.23;;;0.70;;
3359;SDS011;1693;49.602;11.046;2024-02-04T07:23:06;1.00;;;0.60;;
3359;SDS011;1693;49.602;11.046;2024-02-04T07:25:35;1.73;;;0.70;;
3359;SDS011;1693;49.602;11.046;2024-02-04T07:28:03;1.03;;;0.67;;
3359;SDS011;1693;49.602;11.046;2024-02-04T07:30:30;0.90;;;0.60;;
3359;SDS011;1693;49.602;11.046;2024-02-04T07:32:57;1.10;;;0.80;;
3359;SDS011;1693;49.602;11.046;2024-02-04T07:35:25;1.00;;;0.80;;
3359;SDS011;1693;49.602;11.046;2024-02-04T07:37:52;1.27;;;0.80;;
3359;SDS011;1693;49.602;11.046;2024-02-04T07:40:19;1.00;;;0.70;;
3359;SDS011;1693;49.602;11.046;2024-02-04T07:42:47;0.90;;;0.60;;
3359;SDS011;1693;49.602;11.046;2024-02-04T07:45:13;0.90;;;0.60;;
3359;SDS011;1693;49.602;11.046;2024-02-04T07:47:40;1.60;;;0.70;;
3359;SDS011;1693;49.602;11.046;2024-02-04T07:50:08;1.10;;;0.70;;
3359;SDS011;1693;49.602;11.046;2024-02-04T07:52:36;1.30;;;0.80;;
3359;SDS011;1693;49.602;11.046;2024-02-04T07:55:03;1.63;;;0.70;;
3359;SDS011;1693;49.602;11.046;2024-02-04T07:57:30;1.10;;;0.70;;
3359;SDS011;1693;49.602;11.046;2024-02-04T07:59:57;1.20;;;0.80;;
3359;SDS011;1693;49.602;11.046;2024-02-04T08:02:24;1.30;;;0.80;;
3359;SDS011;1693;49.602;11.046;2024-02-04T08:04:51;1.20;;;0.90;;
3359;SDS011;1693;49.602;11.046;2024-02-04T08:07:20;1.00;;;0.60;;
3359;SDS011;1693;49.602;11.046;2024-02-04T08:12:39;0.90;;;0.70;;
3359;SDS011;1693;49.602;11.046;2024-02-04T08:15:09;1.17;;;0.77;;
3359;SDS011;1693;49.602;11.046;2024-02-04T08:17:37;1.23;;;0.70;;
3359;SDS011;1693;49.602;11.046;2024-02-04T08:20:10;0.90;;;0.53;;
3359;SDS011;1693;49.602;11.046;2024-02-04T08:22:39;0.90;;;0.60;;
3359;SDS011;1693;49.602;11.046;2024-02-04T08:25:09;1.00;;;0.70;;
3359;SDS011;1693;49.602;11.046;2024-02-04T08:27:37;0.90;;;0.60;;
3359;SDS011;1693;49.602;11.046;2024-02-04T08:30:04;1.00;;;0.60;;
3359;SDS011;1693;49.602;11.046;2024-02-04T08:32:32;0.90;;;0.70;;
3359;SDS011;1693;49.602;11.046;2024-02-04T08:34:59;1.10;;;0.80;;
3359;SDS011;1693;49.602;11.046;2024-02-04T08:37:31;1.17;;;0.77;;
3359;SDS011;1693;49.602;11.046;2024-02-04T08:39:58;1.07;;;0.70;;
3359;SDS011;1693;49.602;11.046;2024-02-04T08:42:27;1.00;;;0.80;;
3359;SDS011;1693;49.602;11.046;2024-02-04T08:44:55;1.00;;;0.60;;
3359;SDS011;1693;49.602;11.046;2024-02-04T08:47:24;1.20;;;0.90;;
3359;SDS011;1693;49.602;11.046;2024-02-04T08:49:51;0.90;;;0.60;;
3359;SDS011;1693;49.602;11.046;2024-02-04T08:52:20;0.90;;;0.70;;
3359;SDS011;1693;49.602;11.046;2024-02-04T08:54:49;0.90;;;0.70;;
3359;SDS011;1693;49.602;11.046;2024-02-04T08:57:18;1.40;;;0.80;;
3359;SDS011;1693;49.602;11.046;2024-02-04T09:03:10;4.17;;;0.80;;
3359;SDS011;1693;49.602;11.046;2024-02-04T09:05:37;1.67;;;0.70;;
3359;SDS011;1693;49.602;11.046;2024-02-04T09:08:07;1.10;;;0.60;;
3359;SDS011;1693;49.602;11.046;2024-02-04T09:10:37;1.27;;;0.60;;
3359;SDS011;1693;49.602;11.046;2024-02-04T09:13:05;1.00;;;0.60;;
3359;SDS011;1693;49.602;11.046;2024-02-04T09:15:33;1.63;;;0.70;;
3359;SDS011;1693;49.602;11.046;2024-02-04T09:18:02;0.93;;;0.60;;
3359;SDS011;1693;49.602;11.046;2024-02-04T09:20:31;1.43;;;0.80;;
3359;SDS011;1693;49.602;11.046;2024-02-04T09:23:00;0.90;;;0.60;;
3359;SDS011;1693;49.602;11.046;2024-02-04T09:25:30;1.00;;;0.70;;
3359;SDS011;1693;49.602;11.046;2024-02-04T09:27:58;1.67;;;1.17;;
3359;SDS011;1693;49.602;11.046;2024-02-04T09:30:26;1.00;;;0.60;;
3359;SDS011;1693;49.602;11.046;2024-02-04T09:32:58;1.00;;;0.70;;
3359;SDS011;1693;49.602;11.046;2024-02-04T09:35:25;0.90;;;0.70;;
3359;SDS011;1693;49.602;11.046;2024-02-04T09:37:54;1.40;;;0.70;;
3359;SDS011;1693;49.602;11.046;2024-02-04T09:40:21;0.90;;;0.60;;
3359;SDS011;1693;49.602;11.046;2024-02-04T09:42:49;1.10;;;0.70;;
3359;SDS011;1693;49.602;11.046;2024-02-04T09:45:17;1.10;;;0.70;;
3359;SDS011;1693;49.602;11.046;2024-02-04T09:47:44;0.90;;;0.60;;
3359;SDS011;1693;49.602;11.046;2024-02-04T09:50:12;1.00;;;0.70;;
3359;SDS011;1693;49.602;11.046;2024-02-04T09:52:40;1.37;;;0.87;;
3359;SDS011;1693;49.602;11.046;2024-02-04T09:55:15;1.00;;;0.70;;
3359;SDS011;1693;49.602;11.046;2024-02-04T09:57:48;0.90;;;0.60;;
3359;SDS011;1693;49.602;11.046;2024-02-04T10:00:24;1.00;;;0.73;;
3359;SDS011;1693;49.602;11.046;2024-02-04T10:03:10;1.00;;;0.70;;
3359;SDS011;1693;49.602;11.046;2024-02-04T10:05:38;1.20;;;0.80;;
3359;SDS011;1693;49.602;11.046;2024-02-04T10:08:12;1.10;;;0.60;;
3359;SDS011;1693;49.602;11.046;2024-02-04T10:10:52;1.00;;;0.60;;
3359;SDS011;1693;49.602;11.046;2024-02-04T10:13:41;1.00;;;0.70;;
3359;SDS011;1693;49.602;11.046;2024-02-04T10:16:11;1.10;;;0.80;;
3359;SDS011;1693;49.602;11.046;2024-02-04T10:18:45;1.00;;;0.70;;
3359;SDS011;1693;49.602;11.046;2024-02-04T10:21:15;1.00;;;0.60;;
3359;SDS011;1693;49.602;11.046;2024-02-04T10:23:54;0.93;;;0.63;;
3359;SDS011;1693;49.602;11.046;2024-02-04T10:26:24;1.30;;;1.17;;
3359;SDS011;1693;49.602;11.046;2024-02-04T10:29:00;0.90;;;0.60;;
3359;SDS011;1693;49.602;11.046;2024-02-04T10:31:28;0.90;;;0.70;;
3359;SDS011;1693;49.602;11.046;2024-02-04T10:33:55;1.20;;;0.80;;
3359;SDS011;1693;49.602;11.046;2024-02-04T10:36:24;0.90;;;0.60;;
3359;SDS011;1693;49.602;11.046;2024-02-04T10:38:52;1.50;;;0.60;;
3359;SDS011;1693;49.602;11.046;2024-02-04T10:41:21;1.00;;;0.70;;
3359;SDS011;1693;49.602;11.046;2024-02-04T10:43:53;0.90;;;0.60;;
3359;SDS011;1693;49.602;11.046;2024-02-04T10:46:32;1.53;;;0.60;;
3359;SDS011;1693;49.602;11.046;2024-02-04T10:49:16;0.90;;;0.60;;
3359;SDS011;1693;49.602;11.046;2024-02-04T10:51:47;1.40;;;0.70;;
3359;SDS011;1693;49.602;11.046;2024-02-04T10:54:19;0.90;;;0.50;;
3359;SDS011;1693;49.602;11.046;2024-02-04T10:56:54;1.00;;;0.63;;
3359;SDS011;1693;49.602;11.046;2024-02-04T10:59:25;1.00;;;0.70;;
3359;SDS011;1693;49.602;11.046;2024-02-04T11:01:55;0.90;;;0.70;;
3359;SDS011;1693;49.602;11.046;2024-02-04T11:04:25;1.20;;;0.70;;
3359;SDS011;1693;49.602;11.046;2024-02-04T11:07:08;1.30;;;0.70;;
3359;SDS011;1693;49.602;11.046;2024-02-04T11:09:45;0.90;;;0.60;;
3359;SDS011;1693;49.602;11.046;2024-02-04T11:12:23;0.90;;;0.70;;
3359;SDS011;1693;49.602;11.046;2024-02-04T11:14:55;0.90;;;0.70;;
3359;SDS011;1693;49.602;11.046;2024-02-04T11:17:38;0.90;;;0.60;;
3359;SDS011;1693;49.602;11.046;2024-02-04T11:20:35;1.00;;;0.63;;
3359;SDS011;1693;49.602;11.046;2024-02-04T11:23:33;1.00;;;0.67;;
3359;SDS011;1693;49.602;11.046;2024-02-04T11:26:09;1.23;;;0.70;;
3359;SDS011;1693;49.602;11.046;2024-02-04T11:28:50;0.90;;;0.60;;
3359;SDS011;1693;49.602;11.046;2024-02-04T11:31:21;1.00;;;0.70;;
3359;SDS011;1693;49.602;11.046;2024-02-04T11:33:58;1.00;;;0.70;;
3359;SDS011;1693;49.602;11.046;2024-02-04T11:36:30;0.90;;;0.60;;
3359;SDS011;1693;49.602;11.046;2024-02-04T11:39:12;0.90;;;0.70;;
3359;SDS011;1693;49.602;11.046;2024-02-04T11:41:46;0.90;;;0.70;;
3359;SDS011;1693;49.602;11.046;2024-02-04T11:44:26;1.00;;;0.60;;
3359;SDS011;1693;49.602;11.046;2024-02-04T11:46:54;0.97;;;0.60;;
3359;SDS011;1693;49.602;11.046;2024-02-04T11:49:24;1.00;;;0.60;;
3359;SDS011;1693;49.602;11.046;2024-02-04T11:51:52;1.00;;;0.60;;
3359;SDS011;1693;49.602;11.046;2024-02-04T11:54:20;1.10;;;0.60;;
3359;SDS011;1693;49.602;11.046;2024-02-04T11:56:48;2.30;;;1.17;;
3359;SDS011;1693;49.602;11.046;2024-02-04T11:59:19;1.97;;;0.60;;
3359;SDS011;1693;49.602;11.046;2024-02-04T12:01:53;1.00;;;0.60;;
3359;SDS011;1693;49.602;11.046;2024-02-04T12:04:20;1.00;;;0.73;;
3359;SDS011;1693;49.602;11.046;2024-02-04T12:06:53;1.10;;;0.90;;
3359;SDS011;1693;49.602;11.046;2024-02-04T12:09:20;0.90;;;0.60;;
3359;SDS011;1693;49.602;11.046;2024-02-04T12:11:48;1.53;;;0.70;;
3359;SDS011;1693;49.602;11.046;2024-02-04T12:14:17;0.90;;;0.60;;
3359;SDS011;1693;49.602;11.046;2024-02-04T12:16:44;1.00;;;0.60;;
3359;SDS011;1693;49.602;11.046;2024-02-04T12:19:13;1.60;;;0.87;;
3359;SDS011;1693;49.602;11.046;2024-02-04T12:21:40;0.93;;;0.70;;
3359;SDS011;1693;49.602;11.046;2024-02-04T12:24:08;1.00;;;0.70;;
3359;SDS011;1693;49.602;11.046;2024-02-04T12:26:35;0.90;;;0.60;;
3359;SDS011;1693;49.602;11.046;2024-02-04T12:29:02;1.00;;;0.80;;
3359;SDS011;1693;49.602;11.046;2024-02-04T12:31:29;1.20;;;0.90;;
3359;SDS011;1693;49.602;11.046;2024-02-04T12:33:58;1.00;;;0.70;;
3359;SDS011;1693;49.602;11.046;2024-02-04T12:36:28;1.10;;;0.70;;
3359;SDS011;1693;49.602;11.046;2024-02-04T12:38:56;0.93;;;0.70;;
3359;SDS011;1693;49.602;11.046;2024-02-04T12:41:25;0.90;;;0.60;;
3359;SDS011;1693;49.602;11.046;2024-02-04T12:43:53;0.90;;;0.60;;
3359;SDS011;1693;49.602;11.046;2024-02-04T12:46:21;0.90;;;0.60;;
3359;SDS011;1693;49.602;11.046;2024-02-04T12:48:51;0.90;;;0.70;;
3359;SDS011;1693;49.602;11.046;2024-02-04T12:51:25;1.00;;;0.83;;
3359;SDS011;1693;49.602;11.046;2024-02-04T12:54:04;0.90;;;0.63;;
3359;SDS011;1693;49.602;11.046;2024-02-04T12:56:42;1.00;;;0.70;;
3359;SDS011;1693;49.602;11.046;2024-02-04T12:59:11;0.90;;;0.60;;
3359;SDS011;1693;49.602;11.046;2024-02-04T13:01:38;1.10;;;0.80;;
3359;SDS011;1693;49.602;11.046;2024-02-04T13:04:06;1.00;;;0.70;;
3359;SDS011;1693;49.602;11.046;2024-02-04T13:06:38;1.00;;;0.60;;
3359;SDS011;1693;49.602;11.046;2024-02-04T13:09:06;0.90;;;0.70;;
3359;SDS011;1693;49.602;11.046;2024-02-04T13:11:34;1.40;;;0.60;;
3359;SDS011;1693;49.602;11.046;2024-02-04T13:14:01;0.90;;;0.60;;
3359;SDS011;1693;49.602;11.046;2024-02-04T13:16:28;1.00;;;0.70;;
3359;SDS011;1693;49.602;11.046;2024-02-04T13:18:55;0.90;;;0.60;;
3359;SDS011;1693;49.602;11.046;2024-02-04T13:21:22;1.00;;;0.70;;
3359;SDS011;1693;49.602;11.046;2024-02-04T13:23:51;1.17;;;0.90;;
3359;SDS011;1693;49.602;11.046;2024-02-04T13:26:18;1.10;;;0.70;;
3359;SDS011;1693;49.602;11.046;2024-02-04T13:28:46;1.10;;;0.77;;
3359;SDS011;1693;49.602;11.046;2024-02-04T13:31:13;1.10;;;0.80;;
3359;SDS011;1693;49.602;11.046;2024-02-04T13:33:40;0.90;;;0.60;;
3359;SDS011;1693;49.602;11.046;2024-02-04T13:36:08;1.00;;;0.60;;
3359;SDS011;1693;49.602;11.046;2024-02-04T13:38:35;1.33;;;0.70;;
3359;SDS011;1693;49.602;11.046;2024-02-04T13:41:03;0.90;;;0.60;;
3359;SDS011;1693;49.602;11.046;2024-02-04T13:43:33;1.10;;;0.70;;
3359;SDS011;1693;49.602;11.046;2024-02-04T13:46:01;0.90;;;0.63;;
3359;SDS011;1693;49.602;11.046;2024-02-04T13:48:28;1.00;;;0.70;;
3359;SDS011;1693;49.602;11.046;2024-02-04T13:50:57;1.00;;;0.70;;
3359;SDS011;1693;49.602;11.046;2024-02-04T13:53:25;0.97;;;0.67;;
3359;SDS011;1693;49.602;11.046;2024-02-04T13:55:53;1.40;;;0.73;;
3359;SDS011;1693;49.602;11.046;2024-02-04T13:58:21;0.90;;;0.60;;
3359;SDS011;1693;49.602;11.046;2024-02-04T14:00:49;1.00;;;0.80;;
3359;SDS011;1693;49.602;11.046;2024-02-04T14:03:18;1.10;;;0.80;;
3359;SDS011;1693;49.602;11.046;2024-02-04T14:05:45;1.30;;;1.00;;
3359;SDS011;1693;49.602;11.046;2024-02-04T14:08:13;0.90;;;0.70;;
3359;SDS011;1693;49.602;11.046;2024-02-04T14:10:41;0.90;;;0.60;;
3359;SDS011;1693;49.602;11.046;2024-02-04T14:13:09;1.40;;;0.83;;
3359;SDS011;1693;49.602;11.046;2024-02-04T14:15:44;1.00;;;0.60;;
3359;SDS011;1693;49.602;11.046;2024-02-04T14:18:12;1.30;;;0.80;;
3359;SDS011;1693;49.602;11.046;2024-02-04T14:20:42;1.00;;;0.63;;
3359;SDS011;1693;49.602;11.046;2024-02-04T14:23:13;1.20;;;1.07;;
3359;SDS011;1693;49.602;11.046;2024-02-04T14:25:43;0.90;;;0.60;;
3359;SDS011;1693;49.602;11.046;2024-02-04T14:28:11;1.00;;;0.70;;
3359;SDS011;1693;49.602;11.046;2024-02-04T14:30:41;1.10;;;0.80;;
3359;SDS011;1693;49.602;11.046;2024-02-04T14:33:09;0.90;;;0.63;;
3359;SDS011;1693;49.602;11.046;2024-02-04T14:35:37;1.00;;;0.80;;
3359;SDS011;1693;49.602;11.046;2024-02-04T14:38:06;1.10;;;0.80;;
3359;SDS011;1693;49.602;11.046;2024-02-04T14:40:37;1.17;;;0.90;;
3359;SDS011;1693;49.602;11.046;2024-02-04T14:43:15;1.00;;;0.77;;
3359;SDS011;1693;49.602;11.046;2024-02-04T14:45:48;1.30;;;1.00;;
3359;SDS011;1693;49.602;11.046;2024-02-04T14:48:18;1.23;;;0.70;;
3359;SDS011;1693;49.602;11.046;2024-02-04T14:50:47;1.00;;;0.70;;
3359;SDS011;1693;49.602;11.046;2024-02-04T14:53:16;1.23;;;1.13;;
3359;SDS011;1693;49.602;11.046;2024-02-04T14:55:44;1.00;;;0.70;;
3359;SDS011;1693;49.602;11.046;2024-02-04T14:58:12;1.23;;;1.00;;
3359;SDS011;1693;49.602;11.046;2024-02-04T15:00:39;1.00;;;0.70;;
3359;SDS011;1693;49.602;11.046;2024-02-04T15:03:08;1.10;;;0.87;;
3359;SDS011;1693;49.602;11.046;2024-02-04T15:05:36;1.80;;;1.00;;
3359;SDS011;1693;49.602;11.046;2024-02-04T15:08:04;1.40;;;1.23;;
3359;SDS011;1693;49.602;11.046;2024-02-04T15:10:32;1.40;;;0.80;;
3359;SDS011;1693;49.602;11.046;2024-02-04T15:12:59;2.13;;;1.30;;
3359;SDS011;1693;49.602;11.046;2024-02-04T15:15:28;1.10;;;0.90;;
3359;SDS011;1693;49.602;11.046;2024-02-04T15:17:57;0.90;;;0.60;;
3359;SDS011;1693;49.602;11.046;2024-02-04T15:20:26;1.27;;;0.73;;
3359;SDS011;1693;49.602;11.046;2024-02-04T15:22:56;2.00;;;1.00;;